createdAt,value
2018-07-22T00:01:10.142Z,16.50
2018-07-22T00:03:38.966Z,16.50
2018-07-22T00:06:10.942Z,16.50
2018-07-22T00:08:39.806Z,16.50
2018-07-22T00:11:10.686Z,16.50
2018-07-22T00:13:39.514Z,16.50
2018-07-22T00:16:08.388Z,16.40
2018-07-22T00:18:37.322Z,16.40
2018-07-22T00:21:07.222Z,16.40
2018-07-22T00:23:36.026Z,16.40
2018-07-22T00:26:08.650Z,16.40
2018-07-22T00:31:10.090Z,16.40
2018-07-22T00:33:38.882Z,16.40
2018-07-22T00:36:07.742Z,16.40
2018-07-22T00:38:36.602Z,16.40
2018-07-22T00:41:05.590Z,16.40
2018-07-22T00:43:34.566Z,16.40
2018-07-22T00:46:04.502Z,16.40
2018-07-22T00:48:35.380Z,16.40
2018-07-22T00:51:05.350Z,16.30
2018-07-22T00:53:34.293Z,16.30
2018-07-22T00:56:05.218Z,16.30
2018-07-22T00:58:37.481Z,16.30
2018-07-22T01:01:06.414Z,16.30
2018-07-22T01:03:38.921Z,16.30
2018-07-22T01:06:09.778Z,16.30
2018-07-22T01:08:38.570Z,16.30
2018-07-22T01:11:07.429Z,16.30
2018-07-22T01:13:38.279Z,16.30
2018-07-22T01:16:08.105Z,16.30
2018-07-22T01:18:38.097Z,16.30
2018-07-22T01:21:07.049Z,16.30
2018-07-22T01:23:35.949Z,16.30
2018-07-22T01:26:08.813Z,16.30
2018-07-22T01:28:38.637Z,16.20
2018-07-22T01:31:08.865Z,16.20
2018-07-22T01:33:39.757Z,16.20
2018-07-22T01:36:09.733Z,16.20
2018-07-22T01:38:38.525Z,16.10
2018-07-22T01:41:08.522Z,16.10
2018-07-22T01:43:37.374Z,16.10
2018-07-22T01:46:10.268Z,16.10
2018-07-22T01:48:39.135Z,16.10
2018-07-22T01:51:08.158Z,16.20
2018-07-22T01:53:38.117Z,16.10
2018-07-22T01:56:07.029Z,16.20
2018-07-22T01:58:35.897Z,16.20
2018-07-22T02:01:04.797Z,16.20
2018-07-22T02:03:33.613Z,16.20
2018-07-22T02:06:03.510Z,16.20
2018-07-22T02:08:32.366Z,16.20
2018-07-22T02:11:01.279Z,16.10
2018-07-22T02:13:30.213Z,16.10
2018-07-22T02:15:59.089Z,16.10
2018-07-22T02:18:28.037Z,16.10
2018-07-22T02:20:57.026Z,16.20
2018-07-22T02:23:25.854Z,16.20
2018-07-22T02:25:54.701Z,16.20
2018-07-22T02:28:24.533Z,16.10
2018-07-22T02:30:53.422Z,16.10
2018-07-22T02:33:22.882Z,16.10
2018-07-22T02:35:55.754Z,16.10
2018-07-22T02:38:25.666Z,16.10
2018-07-22T02:40:55.593Z,16.10
2018-07-22T02:43:26.573Z,16.10
2018-07-22T02:45:56.310Z,16.10
2018-07-22T02:48:27.233Z,16.10
2018-07-22T02:50:59.117Z,16.10
2018-07-22T02:53:31.029Z,16.10
2018-07-22T02:55:59.937Z,16.10
2018-07-22T02:58:30.794Z,16.00
2018-07-22T03:01:01.574Z,16.00
2018-07-22T03:03:31.559Z,16.00
2018-07-22T03:06:06.777Z,16.00
2018-07-22T03:08:35.693Z,16.00
2018-07-22T03:11:16.554Z,16.00
2018-07-22T03:13:45.457Z,16.00
2018-07-22T03:16:18.125Z,16.00
2018-07-22T03:18:46.905Z,16.00
2018-07-22T03:21:16.853Z,16.00
2018-07-22T03:23:46.685Z,16.00
2018-07-22T03:26:16.553Z,16.00
2018-07-22T03:28:47.485Z,15.90
2018-07-22T03:31:18.437Z,15.90
2018-07-22T03:33:48.329Z,16.00
2018-07-22T03:36:21.913Z,16.00
2018-07-22T03:38:51.753Z,16.00
2018-07-22T03:41:21.637Z,16.00
2018-07-22T03:43:53.742Z,16.00
2018-07-22T03:46:24.662Z,16.00
2018-07-22T03:48:56.734Z,16.00
2018-07-22T03:51:27.649Z,16.00
2018-07-22T03:53:57.594Z,16.00
2018-07-22T03:56:27.462Z,16.00
2018-07-22T03:58:59.346Z,16.00
2018-07-22T04:01:28.209Z,16.00
2018-07-22T04:03:57.789Z,16.00
2018-07-22T04:06:30.145Z,15.90
2018-07-22T04:08:58.941Z,16.00
2018-07-22T04:11:33.589Z,16.00
2018-07-22T04:14:14.585Z,15.90
2018-07-22T04:16:47.305Z,15.90
2018-07-22T04:19:16.190Z,15.90
2018-07-22T04:21:45.042Z,15.90
2018-07-22T04:24:13.949Z,15.90
2018-07-22T04:26:46.413Z,15.90
2018-07-22T04:29:16.250Z,16.00
2018-07-22T04:31:46.126Z,16.00
2018-07-22T04:34:18.661Z,16.00
2018-07-22T04:36:48.471Z,16.00
2018-07-22T04:39:18.233Z,16.10
2018-07-22T04:41:47.105Z,16.10
2018-07-22T04:44:16.929Z,16.10
2018-07-22T04:46:49.205Z,16.10
2018-07-22T04:49:21.178Z,16.10
2018-07-22T04:51:50.061Z,16.10
2018-07-22T04:54:32.465Z,16.20
2018-07-22T04:57:02.253Z,16.20
2018-07-22T04:59:33.152Z,16.20
2018-07-22T05:02:02.997Z,16.30
2018-07-22T05:04:37.577Z,16.30
2018-07-22T05:07:12.213Z,16.30
2018-07-22T05:09:45.582Z,16.30
2018-07-22T05:12:22.013Z,16.30
2018-07-22T05:14:51.789Z,16.30
2018-07-22T05:17:30.577Z,16.40
2018-07-22T05:20:00.486Z,16.40
2018-07-22T05:22:37.366Z,16.40
2018-07-22T05:25:08.129Z,16.40
2018-07-22T05:27:39.009Z,16.40
2018-07-22T05:30:09.865Z,16.40
2018-07-22T05:32:39.689Z,16.40
2018-07-22T05:35:10.478Z,16.40
2018-07-22T05:37:40.281Z,16.40
2018-07-22T05:40:22.326Z,16.40
2018-07-22T05:42:53.149Z,16.40
2018-07-22T05:45:23.941Z,16.30
2018-07-22T05:47:52.701Z,16.40
2018-07-22T05:50:21.465Z,16.40
2018-07-22T05:52:55.486Z,16.50
2018-07-22T05:55:38.457Z,16.50
2018-07-22T06:00:36.768Z,16.60
2018-07-22T06:03:06.645Z,16.60
2018-07-22T06:05:35.471Z,16.60
2018-07-22T06:08:04.258Z,16.60
2018-07-22T06:10:35.132Z,16.60
2018-07-22T06:13:07.325Z,16.60
2018-07-22T06:15:49.808Z,16.60
2018-07-22T06:18:19.569Z,16.60
2018-07-22T06:20:50.329Z,16.50
2018-07-22T06:23:23.047Z,16.50
2018-07-22T06:26:02.213Z,16.50
2018-07-22T06:28:31.030Z,16.50
2018-07-22T06:31:00.789Z,16.50
2018-07-22T06:33:33.078Z,16.50
2018-07-22T06:36:02.890Z,16.50
2018-07-22T06:38:55.929Z,16.50
2018-07-22T06:41:25.697Z,16.40
2018-07-22T06:44:04.813Z,16.40
2018-07-22T06:46:35.634Z,16.40
2018-07-22T06:49:05.402Z,16.50
2018-07-22T06:51:37.808Z,16.40
2018-07-22T06:56:43.877Z,16.40
2018-07-22T06:59:13.701Z,16.40
2018-07-22T07:01:59.645Z,16.40
2018-07-22T07:04:37.990Z,16.40
2018-07-22T07:07:06.741Z,16.40
2018-07-22T07:09:36.529Z,16.40
2018-07-22T07:12:08.317Z,16.40
2018-07-22T07:14:37.090Z,16.40
2018-07-22T07:17:06.948Z,16.40
2018-07-22T07:19:35.725Z,16.40
2018-07-22T07:22:04.512Z,16.40
2018-07-22T07:27:05.574Z,16.40
2018-07-22T07:29:39.033Z,16.40
2018-07-22T07:32:09.193Z,16.40
2018-07-22T07:34:37.997Z,16.40
2018-07-22T07:37:07.781Z,16.40
2018-07-22T07:39:37.529Z,16.40
2018-07-22T07:42:07.286Z,16.40
2018-07-22T07:44:37.021Z,16.40
2018-07-22T07:47:11.205Z,16.50
2018-07-22T07:49:45.809Z,16.40
2018-07-22T07:52:16.613Z,16.40
2018-07-22T07:54:45.441Z,16.30
2018-07-22T07:57:18.069Z,16.30
2018-07-22T07:59:52.836Z,16.30
2018-07-22T08:04:58.177Z,16.30
2018-07-22T08:07:32.947Z,16.30
2018-07-22T08:10:04.509Z,16.40
2018-07-22T08:12:37.212Z,16.40
2018-07-22T08:15:08.073Z,16.50
2018-07-22T08:17:37.925Z,16.50
2018-07-22T08:20:08.736Z,16.50
2018-07-22T08:22:37.996Z,16.60
2018-07-22T08:25:07.836Z,16.60
2018-07-22T08:27:36.624Z,16.70
2018-07-22T08:30:06.376Z,16.60
2018-07-22T08:32:37.224Z,16.60
2018-07-22T08:35:09.574Z,16.60
2018-07-22T08:37:39.597Z,16.60
2018-07-22T08:40:12.153Z,16.70
2018-07-22T08:42:43.061Z,16.80
2018-07-22T08:45:14.141Z,16.90
2018-07-22T08:47:55.265Z,17.00
2018-07-22T08:50:28.909Z,17.20
2018-07-22T08:55:37.456Z,17.40
2018-07-22T08:58:08.345Z,17.60
2018-07-22T09:00:37.226Z,17.70
2018-07-22T09:03:07.213Z,17.90
2018-07-22T09:05:37.065Z,18.00
2018-07-22T09:08:05.865Z,18.10
2018-07-22T09:10:36.641Z,18.10
2018-07-22T09:13:05.473Z,18.20
2018-07-22T09:15:37.585Z,18.30
2018-07-22T09:18:10.351Z,18.40
2018-07-22T09:20:40.421Z,18.60
2018-07-22T09:23:11.273Z,18.80
2018-07-22T09:25:45.993Z,18.80
2018-07-22T09:28:15.793Z,18.80
2018-07-22T09:30:47.969Z,18.90
2018-07-22T09:33:20.865Z,18.90
2018-07-22T09:35:49.709Z,19.00
2018-07-22T09:38:19.409Z,19.00
2018-07-22T09:40:51.453Z,18.80
2018-07-22T09:43:20.365Z,18.70
2018-07-22T09:45:49.473Z,18.80
2018-07-22T09:48:18.289Z,18.80
2018-07-22T09:50:48.101Z,18.70
2018-07-22T09:53:18.245Z,18.80
2018-07-22T09:55:48.494Z,18.80
2018-07-22T09:58:19.493Z,18.90
2018-07-22T10:00:53.321Z,18.90
2018-07-22T10:03:25.013Z,19.10
2018-07-22T10:05:54.780Z,19.30
2018-07-22T10:10:56.489Z,19.20
2018-07-22T10:13:26.259Z,19.20
2018-07-22T10:15:58.860Z,19.30
2018-07-22T10:18:28.604Z,19.40
2018-07-22T10:20:57.860Z,19.30
2018-07-22T10:23:26.808Z,19.10
2018-07-22T10:25:56.612Z,19.10
2018-07-22T10:28:26.581Z,19.20
2018-07-22T10:30:56.480Z,19.10
2018-07-22T10:33:26.300Z,19.50
2018-07-22T10:35:56.232Z,19.60
2018-07-22T10:38:24.907Z,19.50
2018-07-22T10:40:58.557Z,19.30
2018-07-22T10:43:28.609Z,19.30
2018-07-22T10:46:01.076Z,19.50
2018-07-22T10:48:31.989Z,19.30
2018-07-22T10:51:01.947Z,19.40
2018-07-22T10:53:33.997Z,19.30
2018-07-22T10:56:03.916Z,19.20
2018-07-22T10:58:44.237Z,19.40
2018-07-22T11:01:15.217Z,19.30
2018-07-22T11:03:45.121Z,19.50
2018-07-22T11:06:15.916Z,19.70
2018-07-22T11:08:45.885Z,19.70
2018-07-22T11:11:16.772Z,19.80
2018-07-22T11:13:49.712Z,19.90
2018-07-22T11:16:22.069Z,20.00
2018-07-22T11:18:50.944Z,20.20
2018-07-22T11:21:19.993Z,20.40
2018-07-22T11:23:51.688Z,20.40
2018-07-22T11:26:21.500Z,20.60
2018-07-22T11:28:51.466Z,20.60
2018-07-22T11:31:20.216Z,20.60
2018-07-22T11:33:52.524Z,20.90
2018-07-22T11:36:22.532Z,21.30
2018-07-22T11:38:51.280Z,21.70
2018-07-22T11:41:20.229Z,21.70
2018-07-22T11:43:54.542Z,21.30
2018-07-22T11:46:26.435Z,21.20
2018-07-22T11:48:55.200Z,21.30
2018-07-22T11:51:23.979Z,21.40
2018-07-22T11:53:52.867Z,21.70
2018-07-22T11:56:21.716Z,22.00
2018-07-22T11:58:50.596Z,22.20
2018-07-22T12:01:20.595Z,22.50
2018-07-22T12:03:50.443Z,23.00
2018-07-22T12:06:31.536Z,23.10
2018-07-22T12:09:00.296Z,23.40
2018-07-22T12:11:32.715Z,23.30
2018-07-22T12:14:05.607Z,23.20
2018-07-22T12:16:34.484Z,23.40
2018-07-22T12:19:03.307Z,23.90
2018-07-22T12:24:01.602Z,24.00
2018-07-22T12:29:01.257Z,23.80
2018-07-22T12:31:29.992Z,24.00
2018-07-22T12:34:00.860Z,24.60
2018-07-22T12:36:35.123Z,24.90
2018-07-22T12:39:07.384Z,25.10
2018-07-22T12:41:36.239Z,25.50
2018-07-22T12:44:06.017Z,26.10
2018-07-22T12:46:35.862Z,26.90
2018-07-22T12:49:06.152Z,27.50
2018-07-22T12:51:34.959Z,27.80
2018-07-22T12:56:32.247Z,29.40
2018-07-22T12:59:01.036Z,30.00
2018-07-22T13:01:31.815Z,29.10
2018-07-22T13:04:00.691Z,28.70
2018-07-22T13:06:30.437Z,28.30
2018-07-22T13:08:59.398Z,28.90
2018-07-22T13:11:28.215Z,29.60
2018-07-22T13:13:58.016Z,30.70
2018-07-22T13:16:28.884Z,30.40
2018-07-22T13:18:59.871Z,30.60
2018-07-22T13:21:33.684Z,31.00
2018-07-22T13:24:07.584Z,30.50
2018-07-22T13:26:36.448Z,30.40
2018-07-22T13:29:17.619Z,32.00
2018-07-22T13:31:46.772Z,30.90
2018-07-22T13:34:18.904Z,29.40
2018-07-22T13:36:47.744Z,28.70
2018-07-22T13:41:48.195Z,28.20
2018-07-22T13:44:17.107Z,28.80
2018-07-22T13:46:46.930Z,29.20
2018-07-22T13:49:19.032Z,29.00
2018-07-22T13:51:57.971Z,28.60
2018-07-22T13:54:30.015Z,29.40
2018-07-22T13:56:58.929Z,29.90
2018-07-22T13:59:27.719Z,29.80
2018-07-22T14:01:56.655Z,30.20
2018-07-22T14:04:29.599Z,30.50
2018-07-22T14:07:01.929Z,30.10
2018-07-22T14:09:34.848Z,30.50
2018-07-22T14:12:03.894Z,31.30
2018-07-22T14:14:32.684Z,31.90
2018-07-22T14:17:01.485Z,31.40
2018-07-22T14:19:31.276Z,30.60
2018-07-22T14:22:00.048Z,30.40
2018-07-22T14:24:30.048Z,29.20
2018-07-22T14:26:59.972Z,28.40
2018-07-22T14:29:34.408Z,28.30
2018-07-22T14:34:37.967Z,26.50
2018-07-22T14:37:07.847Z,26.60
2018-07-22T14:39:36.615Z,26.10
2018-07-22T14:42:06.423Z,25.70
2018-07-22T14:44:36.183Z,25.70
2018-07-22T14:47:06.175Z,25.50
2018-07-22T14:49:35.047Z,26.00
2018-07-22T14:52:05.067Z,26.00
2018-07-22T14:54:35.863Z,25.60
2018-07-22T14:57:06.616Z,26.10
2018-07-22T14:59:35.347Z,25.30
2018-07-22T15:02:05.119Z,25.40
2018-07-22T15:04:33.987Z,25.70
2018-07-22T15:07:03.727Z,26.30
2018-07-22T15:09:33.623Z,27.40
2018-07-22T15:12:03.467Z,29.10
2018-07-22T15:14:33.231Z,28.60
2018-07-22T15:17:03.879Z,28.40
2018-07-22T15:19:33.635Z,27.70
2018-07-22T15:22:07.123Z,26.50
2018-07-22T15:24:36.262Z,26.10
2018-07-22T15:27:05.056Z,25.80
2018-07-22T15:29:34.869Z,25.30
2018-07-22T15:32:04.811Z,25.10
2018-07-22T15:34:35.491Z,24.40
2018-07-22T15:37:12.338Z,24.20
2018-07-22T15:39:45.299Z,23.70
2018-07-22T15:42:14.127Z,23.20
2018-07-22T15:44:43.015Z,23.20
2018-07-22T15:47:12.859Z,23.00
2018-07-22T15:49:41.905Z,22.60
2018-07-22T15:52:12.655Z,22.40
2018-07-22T15:54:41.522Z,22.30
2018-07-22T15:57:11.370Z,22.30
2018-07-22T15:59:41.274Z,22.20
2018-07-22T16:02:10.099Z,22.10
2018-07-22T16:04:38.907Z,22.00
2018-07-22T16:07:07.747Z,21.90
2018-07-22T16:09:36.567Z,21.90
2018-07-22T16:12:05.310Z,21.90
2018-07-22T16:14:35.015Z,21.80
2018-07-22T16:17:14.190Z,21.60
2018-07-22T16:19:48.474Z,21.60
2018-07-22T16:22:20.496Z,21.60
2018-07-22T16:24:49.359Z,21.50
2018-07-22T16:27:18.129Z,21.40
2018-07-22T16:29:46.988Z,21.20
2018-07-22T16:32:16.812Z,21.00
2018-07-22T16:34:47.812Z,20.90
2018-07-22T16:37:16.696Z,20.70
2018-07-22T16:39:46.441Z,20.60
2018-07-22T16:42:19.093Z,20.60
2018-07-22T16:44:51.516Z,20.60
2018-07-22T16:47:20.356Z,20.60
2018-07-22T16:49:50.785Z,20.70
2018-07-22T16:52:19.781Z,20.70
2018-07-22T16:54:48.604Z,20.70
2018-07-22T16:57:22.329Z,20.80
2018-07-22T16:59:52.202Z,20.80
2018-07-22T17:02:26.774Z,20.90
2018-07-22T17:04:58.713Z,21.00
2018-07-22T17:07:27.550Z,21.00
2018-07-22T17:09:57.354Z,20.90
2018-07-22T17:12:30.257Z,21.00
2018-07-22T17:15:00.078Z,21.00
2018-07-22T17:17:29.883Z,21.00
2018-07-22T17:19:59.677Z,21.00
2018-07-22T17:22:29.589Z,20.90
2018-07-22T17:24:58.461Z,20.90
2018-07-22T17:27:28.409Z,20.90
2018-07-22T17:29:57.305Z,20.80
2018-07-22T17:32:27.111Z,20.70
2018-07-22T17:34:59.505Z,20.70
2018-07-22T17:37:29.501Z,20.80
2018-07-22T17:40:00.466Z,20.80
2018-07-22T17:42:31.194Z,20.80
2018-07-22T17:45:01.046Z,20.80
2018-07-22T17:47:32.848Z,20.80
2018-07-22T17:50:02.635Z,20.60
2018-07-22T17:52:31.411Z,20.50
2018-07-22T17:55:04.495Z,20.50
2018-07-22T17:57:34.321Z,20.40
2018-07-22T18:00:03.104Z,20.40
2018-07-22T18:02:31.903Z,20.30
2018-07-22T18:05:00.812Z,20.30
2018-07-22T18:07:30.605Z,20.20
2018-07-22T18:12:55.351Z,20.10
2018-07-22T18:15:24.143Z,20.10
2018-07-22T18:17:53.974Z,20.00
2018-07-22T18:20:22.722Z,19.90
2018-07-22T18:22:54.838Z,19.90
2018-07-22T18:25:25.590Z,19.80
2018-07-22T18:27:55.393Z,19.80
2018-07-22T18:30:25.202Z,19.80
2018-07-22T18:32:56.033Z,19.80
2018-07-22T18:35:25.902Z,19.80
2018-07-22T18:37:55.990Z,19.70
2018-07-22T18:40:26.262Z,19.60
2018-07-22T18:42:56.586Z,19.60
2018-07-22T18:45:26.392Z,19.50
2018-07-22T18:47:57.132Z,19.50
2018-07-22T18:50:25.978Z,19.40
2018-07-22T18:52:55.734Z,19.30
2018-07-22T18:55:27.519Z,19.20
2018-07-22T18:57:56.339Z,19.20
2018-07-22T19:00:25.242Z,19.10
2018-07-22T19:02:55.055Z,19.00
2018-07-22T19:05:23.850Z,19.00
2018-07-22T19:07:52.588Z,19.00
2018-07-22T19:10:22.747Z,18.90
2018-07-22T19:12:55.003Z,18.90
2018-07-22T19:15:25.867Z,18.80
2018-07-22T19:17:55.723Z,18.80
2018-07-22T19:20:27.078Z,18.80
2018-07-22T19:22:56.871Z,18.80
2018-07-22T19:25:25.711Z,18.80
2018-07-22T19:27:54.583Z,18.90
2018-07-22T19:30:24.639Z,18.80
2018-07-22T19:32:55.332Z,18.80
2018-07-22T19:35:25.234Z,18.70
2018-07-22T19:37:54.039Z,18.80
2018-07-22T19:40:23.862Z,18.80
2018-07-22T19:42:53.668Z,18.80
2018-07-22T19:45:22.567Z,18.80
2018-07-22T19:47:56.478Z,18.70
2018-07-22T19:50:25.391Z,18.70
2018-07-22T19:52:55.296Z,18.70
2018-07-22T19:55:24.071Z,18.70
2018-07-22T19:57:57.123Z,18.70
2018-07-22T20:02:54.601Z,18.70
2018-07-22T20:05:23.350Z,18.60
2018-07-22T20:07:52.143Z,18.60
2018-07-22T20:10:23.935Z,18.60
2018-07-22T20:12:52.731Z,18.60
2018-07-22T20:15:24.600Z,18.60
2018-07-22T20:17:54.671Z,18.60
2018-07-22T20:20:23.691Z,18.50
2018-07-22T20:22:53.463Z,18.40
2018-07-22T20:25:23.212Z,18.40
2018-07-22T20:27:53.086Z,18.30
2018-07-22T20:30:30.159Z,18.20
2018-07-22T20:33:05.935Z,18.30
2018-07-22T20:35:37.723Z,18.20
2018-07-22T20:38:06.491Z,18.20
2018-07-22T20:40:36.331Z,18.20
2018-07-22T20:43:10.795Z,18.10
2018-07-22T20:45:40.675Z,18.00
2018-07-22T20:48:09.543Z,17.90
2018-07-22T20:50:44.043Z,17.80
2018-07-22T20:53:13.847Z,17.80
2018-07-22T20:55:45.448Z,17.90
2018-07-22T20:58:20.891Z,17.90
2018-07-22T21:00:55.751Z,17.90
2018-07-22T21:03:25.699Z,17.90
2018-07-22T21:05:56.548Z,17.80
2018-07-22T21:08:27.407Z,17.80
2018-07-22T21:10:56.331Z,17.80
2018-07-22T21:13:27.198Z,17.70
2018-07-22T21:15:58.056Z,17.70
2018-07-22T21:18:30.391Z,17.70
2018-07-22T21:21:01.245Z,17.70
2018-07-22T21:23:30.040Z,17.70
2018-07-22T21:25:58.835Z,17.70
2018-07-22T21:28:32.443Z,17.80
2018-07-22T21:31:11.887Z,17.80
2018-07-22T21:33:40.922Z,17.80
2018-07-22T21:36:15.566Z,17.80
2018-07-22T21:38:45.459Z,17.80
2018-07-22T21:41:14.284Z,17.80
2018-07-22T21:43:57.720Z,17.70
2018-07-22T21:46:27.531Z,17.70
2018-07-22T21:48:57.355Z,17.70
2018-07-22T21:51:29.420Z,17.70
2018-07-22T21:54:20.471Z,17.70
2018-07-22T21:56:51.323Z,17.70
2018-07-22T21:59:28.079Z,17.70
2018-07-22T22:01:58.895Z,17.70
2018-07-22T22:04:28.188Z,17.70
2018-07-22T22:07:02.779Z,17.70
2018-07-22T22:09:35.131Z,17.70
2018-07-22T22:12:03.967Z,17.70
2018-07-22T22:14:32.814Z,17.60
2018-07-22T22:17:06.284Z,17.60
2018-07-22T22:19:40.115Z,17.50
2018-07-22T22:22:15.323Z,17.50
2018-07-22T22:24:46.020Z,17.50
2018-07-22T22:27:20.347Z,17.50
2018-07-22T22:29:49.288Z,17.50
2018-07-22T22:32:20.081Z,17.50
2018-07-22T22:34:49.608Z,17.40
2018-07-22T22:37:18.466Z,17.40
2018-07-22T22:39:48.231Z,17.40
2018-07-22T22:42:18.067Z,17.40
2018-07-22T22:44:47.855Z,17.40
2018-07-22T22:47:17.663Z,17.30
2018-07-22T22:49:49.830Z,17.30
2018-07-22T22:52:20.572Z,17.30
2018-07-22T22:54:49.394Z,17.30
2018-07-22T22:57:19.199Z,17.30
2018-07-22T22:59:57.559Z,17.30
2018-07-22T23:02:37.418Z,17.30
2018-07-22T23:05:13.939Z,17.30
2018-07-22T23:07:47.615Z,17.30
2018-07-22T23:10:22.003Z,17.20
2018-07-22T23:12:51.851Z,17.20
2018-07-22T23:15:24.347Z,17.10
2018-07-22T23:18:01.415Z,17.00
2018-07-22T23:23:01.779Z,17.00
2018-07-22T23:25:46.895Z,17.00
2018-07-22T23:28:18.790Z,17.00
2018-07-22T23:33:28.959Z,17.00
2018-07-22T23:35:58.760Z,17.00
2018-07-22T23:38:32.791Z,17.10
2018-07-22T23:41:02.591Z,17.10
2018-07-22T23:43:35.469Z,17.10
2018-07-22T23:46:13.915Z,17.10
2018-07-22T23:48:43.779Z,17.10
2018-07-22T23:51:23.866Z,17.10
2018-07-22T23:53:57.147Z,17.10
2018-07-22T23:56:26.047Z,17.00
2018-07-22T23:58:54.847Z,17.00
